Time;durP1;ratioP1;P1;durP2;ratioP2;P2;SDS_P1;SDS_P2;PMS_P1;PMS_P2;Temp;Humidity;BMP_temperature;BMP_pressure;BME280_temperature;BME280_humidity;BME280_pressure;Samples;Min_cycle;Max_cycle;Signal;HPM_P1;HPM_P2
2022/05/04 00:00:59;;;;;;;;;;;;;;;17.65;43.95;102157.75;4994537;28;20004;-76
2022/05/04 00:03:24;;;;;;;;;;;;;;;17.64;43.94;102161.22;4994530;28;19914;-76
2022/05/04 00:05:49;;;;;;;;;;;;;;;17.64;44.06;102158.63;4961078;28;20004;-77
2022/05/04 00:08:15;;;;;;;;;;;;;;;17.64;43.97;102161.22;4977079;28;19921;-76
2022/05/04 00:10:40;;;;;;;;;;;;;;;17.63;43.90;102160.34;4961015;28;19934;-76
2022/05/04 00:13:05;;;;;;;;;;;;;;;17.63;43.88;102159.47;4961118;28;20272;-76
2022/05/04 00:15:30;;;;;;;;;;;;;;;17.63;43.92;102160.34;4979299;28;19972;-89
2022/05/04 00:17:56;;;;;;;;;;;;;;;17.62;43.89;102160.34;4966406;28;19918;-87
2022/05/04 00:20:21;;;;;;;;;;;;;;;17.63;43.90;102167.28;4999607;28;19921;-88
2022/05/04 00:22:46;;;;;;;;;;;;;;;17.63;43.89;102154.25;4965828;28;20084;-88
2022/05/04 00:25:12;;;;;;;;;;;;;;;17.63;44.10;102159.47;4965846;28;19922;-87
2022/05/04 00:27:37;;;;;;;;;;;;;;;17.62;43.84;102163.81;4999002;28;19930;-88
2022/05/04 00:30:04;;;;;;;;;;;;;;;17.62;43.92;102157.72;4999174;28;20280;-87
2022/05/04 00:32:29;;;;;;;;;;;;;;;17.61;44.23;102151.63;4982136;28;19913;-88
2022/05/04 00:34:54;;;;;;;;;;;;;;;17.62;43.95;102157.72;4982217;28;19925;-90
2022/05/04 00:37:20;;;;;;;;;;;;;;;17.62;43.79;102155.13;4965439;28;19965;-89
2022/05/04 00:39:47;;;;;;;;;;;;;;;17.60;44.06;102159.44;4981561;28;19918;-88
2022/05/04 00:42:12;;;;;;;;;;;;;;;17.59;43.97;102155.94;4965559;28;19925;-89
2022/05/04 00:44:38;;;;;;;;;;;;;;;17.60;43.88;102151.63;4981779;28;19914;-87
2022/05/04 00:47:04;;;;;;;;;;;;;;;17.59;43.87;102148.13;4982026;28;19921;-87
2022/05/04 00:49:29;;;;;;;;;;;;;;;17.60;43.78;102156.84;4965821;28;19918;-88
2022/05/04 00:51:54;;;;;;;;;;;;;;;17.59;43.83;102158.53;4981881;28;20061;-87
2022/05/04 00:54:20;;;;;;;;;;;;;;;17.59;43.91;102155.94;4999011;28;20064;-87
2022/05/04 00:56:45;;;;;;;;;;;;;;;17.59;43.84;102142.06;4981532;28;19918;-88
2022/05/04 00:59:10;;;;;;;;;;;;;;;17.59;43.91;102142.94;4998971;28;19918;-88
2022/05/04 01:01:36;;;;;;;;;;;;;;;17.58;44.00;102138.59;4981613;28;19965;-89
2022/05/04 01:04:01;;;;;;;;;;;;;;;17.59;43.93;102144.66;4999157;28;19928;-89
2022/05/04 01:06:26;;;;;;;;;;;;;;;17.58;43.83;102143.81;4981744;28;19922;-89
2022/05/04 01:08:53;;;;;;;;;;;;;;;17.58;43.84;102146.41;4981424;28;20000;-87
2022/05/04 01:11:19;;;;;;;;;;;;;;;17.57;43.84;102147.28;4998909;28;19922;-87
2022/05/04 01:14:04;;;;;;;;;;;;;;;17.57;44.03;102142.06;4981514;28;19968;-88
2022/05/04 01:16:30;;;;;;;;;;;;;;;17.56;43.86;102137.69;4980134;28;19948;-89
2022/05/04 01:18:56;;;;;;;;;;;;;;;17.57;43.91;102138.56;4981175;28;19914;-88
2022/05/04 01:21:21;;;;;;;;;;;;;;;17.56;43.95;102136.84;4964906;28;19918;-89
2022/05/04 01:23:46;;;;;;;;;;;;;;;17.57;43.84;102135.97;4964885;28;19922;-88
2022/05/04 01:26:13;;;;;;;;;;;;;;;17.56;43.83;102136.84;4964140;28;19914;-88
2022/05/04 01:28:38;;;;;;;;;;;;;;;17.56;43.89;102132.50;4997751;28;19929;-88
2022/05/04 01:31:03;;;;;;;;;;;;;;;17.54;43.88;102131.59;4964549;28;19933;-88
2022/05/04 01:33:28;;;;;;;;;;;;;;;17.54;43.85;102129.00;4965778;28;19921;-90
2022/05/04 01:35:54;;;;;;;;;;;;;;;17.53;43.77;102132.47;4998151;28;19918;-88
2022/05/04 01:38:19;;;;;;;;;;;;;;;17.53;43.87;102119.47;4965277;28;20382;-89
2022/05/04 01:40:45;;;;;;;;;;;;;;;17.52;43.74;102125.50;4981364;28;20382;-88
2022/05/04 01:43:10;;;;;;;;;;;;;;;17.52;43.91;102133.31;4981443;28;19913;-87
2022/05/04 01:45:35;;;;;;;;;;;;;;;17.52;43.83;102122.03;4997937;28;19918;-88
2022/05/04 01:48:01;;;;;;;;;;;;;;;17.52;43.99;102124.63;4965340;28;19918;-88
2022/05/04 01:50:26;;;;;;;;;;;;;;;17.51;43.92;102122.88;4964969;28;20020;-88
2022/05/04 01:52:51;;;;;;;;;;;;;;;17.50;43.84;102122.00;4981400;28;19918;-87
2022/05/04 01:55:17;;;;;;;;;;;;;;;17.50;43.99;102114.19;5000353;28;19941;-88
2022/05/04 01:57:42;;;;;;;;;;;;;;;17.48;44.02;102116.81;4982437;28;19925;-89
2022/05/04 02:00:08;;;;;;;;;;;;;;;17.49;43.78;102112.47;4982571;28;19918;-87
2022/05/04 02:02:34;;;;;;;;;;;;;;;17.48;44.05;102115.91;4982483;28;19914;-87
2022/05/04 02:04:59;;;;;;;;;;;;;;;17.48;43.77;102115.91;4982223;28;19922;-88
2022/05/04 02:07:25;;;;;;;;;;;;;;;17.48;43.82;102119.41;4980660;28;19914;-88
2022/05/04 02:09:50;;;;;;;;;;;;;;;17.47;44.23;102115.03;4981589;28;19918;-88
2022/05/04 02:12:16;;;;;;;;;;;;;;;17.47;43.99;102112.44;4981543;28;19921;-87
2022/05/04 02:14:41;;;;;;;;;;;;;;;17.48;43.77;102115.91;4981998;28;19929;-88
2022/05/04 02:17:06;;;;;;;;;;;;;;;17.47;43.82;102122.84;4981838;28;19924;-89
2022/05/04 02:19:32;;;;;;;;;;;;;;;17.46;43.92;102113.31;4980494;28;19910;-89
2022/05/04 02:21:57;;;;;;;;;;;;;;;17.46;43.92;102110.72;4963753;28;19918;-87
2022/05/04 02:24:23;;;;;;;;;;;;;;;17.46;43.84;102115.03;4996620;28;20012;-88
2022/05/04 02:26:48;;;;;;;;;;;;;;;17.45;44.07;102115.88;4997124;28;19947;-88
2022/05/04 02:29:13;;;;;;;;;;;;;;;17.45;44.03;102111.56;4979194;28;19926;-75
2022/05/04 02:31:39;;;;;;;;;;;;;;;17.46;43.96;102109.81;4961842;28;19972;-75
2022/05/04 02:34:04;;;;;;;;;;;;;;;17.45;43.91;102110.69;4962019;28;19918;-77
2022/05/04 02:39:13;;;;;;;;;;;;;;;17.43;43.88;102105.47;4995811;28;19936;-76
2022/05/04 02:41:38;;;;;;;;;;;;;;;17.43;43.88;102112.41;4961960;28;20379;-76
2022/05/04 02:44:04;;;;;;;;;;;;;;;17.43;43.89;102110.66;4977969;28;19925;-76
2022/05/04 02:46:30;;;;;;;;;;;;;;;17.43;43.93;102105.47;4995376;28;19914;-76
2022/05/04 02:48:55;;;;;;;;;;;;;;;17.42;43.92;102103.72;4977881;28;19936;-76
2022/05/04 02:51:21;;;;;;;;;;;;;;;17.42;43.89;102095.91;4978087;28;20352;-75
2022/05/04 02:53:46;;;;;;;;;;;;;;;17.41;44.03;102099.34;4995342;28;19936;-77
2022/05/04 02:56:15;;;;;;;;;;;;;;;17.41;43.94;102093.28;4977865;28;20446;-75
2022/05/04 02:58:40;;;;;;;;;;;;;;;17.41;43.78;102098.50;4995289;28;20008;-76
2022/05/04 03:03:57;;;;;;;;;;;;;;;17.41;43.91;102095.88;4995549;28;19921;-75
2022/05/04 03:06:23;;;;;;;;;;;;;;;17.40;43.97;102099.38;4961634;28;19918;-75
2022/05/04 03:08:48;;;;;;;;;;;;;;;17.39;43.97;102101.06;4995277;28;20363;-76
2022/05/04 03:13:58;;;;;;;;;;;;;;;17.39;43.85;102090.66;4995454;28;19925;-77
2022/05/04 03:16:24;;;;;;;;;;;;;;;17.39;43.82;102088.06;4977678;28;19914;-76
2022/05/04 03:18:49;;;;;;;;;;;;;;;17.39;43.91;102087.19;4977641;28;19918;-76
2022/05/04 03:21:14;;;;;;;;;;;;;;;17.38;43.82;102086.31;4961666;28;19918;-75
2022/05/04 03:23:39;;;;;;;;;;;;;;;17.38;43.89;102088.06;4977633;28;19977;-76
2022/05/04 03:26:07;;;;;;;;;;;;;;;17.38;43.81;102088.06;4961292;28;20016;-75
2022/05/04 03:28:33;;;;;;;;;;;;;;;17.36;43.85;102081.97;4977024;28;19922;-76
2022/05/04 03:30:58;;;;;;;;;;;;;;;17.36;43.73;102082.84;4961038;28;20414;-76
2022/05/04 03:33:23;;;;;;;;;;;;;;;17.36;43.91;102080.22;4977733;28;20314;-76
2022/05/04 03:35:48;;;;;;;;;;;;;;;17.35;43.92;102070.66;4961240;28;20284;-77
2022/05/04 03:38:13;;;;;;;;;;;;;;;17.35;43.90;102075.88;4961269;28;19925;-76
2022/05/04 03:40:39;;;;;;;;;;;;;;;17.35;43.85;102072.41;4961123;28;19918;-77
2022/05/04 03:43:04;;;;;;;;;;;;;;;17.35;43.86;102075.88;4961294;28;20012;-76
2022/05/04 03:45:30;;;;;;;;;;;;;;;17.34;43.84;102074.13;4977637;28;19917;-76
2022/05/04 03:47:55;;;;;;;;;;;;;;;17.35;43.82;102081.06;4961195;28;19917;-77
2022/05/04 03:50:20;;;;;;;;;;;;;;;17.35;43.83;102075.00;4978911;28;20023;-76
2022/05/04 03:52:45;;;;;;;;;;;;;;;17.35;43.87;102075.00;4981220;28;19934;-76
2022/05/04 03:55:10;;;;;;;;;;;;;;;17.35;43.75;102077.59;4964886;28;19922;-77
2022/05/04 03:57:36;;;;;;;;;;;;;;;17.34;43.70;102074.13;4981135;28;19925;-77
2022/05/04 04:00:01;;;;;;;;;;;;;;;17.34;43.83;102070.66;4965051;28;19937;-78
2022/05/04 04:02:27;;;;;;;;;;;;;;;17.33;43.81;102066.31;4965158;28;20311;-76
2022/05/04 04:04:52;;;;;;;;;;;;;;;17.32;43.88;102070.63;4964845;28;19924;-77
2022/05/04 04:07:17;;;;;;;;;;;;;;;17.32;43.80;102075.84;4964999;28;19922;-77
2022/05/04 04:09:43;;;;;;;;;;;;;;;17.32;43.84;102073.25;4980934;28;19917;-76
2022/05/04 04:12:08;;;;;;;;;;;;;;;17.32;43.97;102075.84;4998477;28;19917;-76
2022/05/04 04:14:33;;;;;;;;;;;;;;;17.32;43.89;102074.97;4980985;28;20395;-76
2022/05/04 04:16:59;;;;;;;;;;;;;;;17.31;43.92;102074.13;4964733;28;20272;-77
2022/05/04 04:19:24;;;;;;;;;;;;;;;17.31;43.95;102074.13;4964780;28;20056;-76
2022/05/04 04:21:53;;;;;;;;;;;;;;;17.31;43.81;102076.72;4964701;28;19924;-77
2022/05/04 04:24:19;;;;;;;;;;;;;;;17.31;43.82;102084.53;4980872;28;19921;-77
2022/05/04 04:26:44;;;;;;;;;;;;;;;17.31;43.69;102081.91;4964436;28;19992;-77
2022/05/04 04:29:11;;;;;;;;;;;;;;;17.30;43.74;102080.16;4980451;28;19973;-76
2022/05/04 04:31:36;;;;;;;;;;;;;;;17.32;43.75;102082.78;4980587;28;19928;-76
2022/05/04 04:34:01;;;;;;;;;;;;;;;17.31;43.78;102084.53;4980424;28;19914;-76
2022/05/04 04:36:27;;;;;;;;;;;;;;;17.31;43.77;102087.13;4980725;28;19960;-76
2022/05/04 04:38:52;;;;;;;;;;;;;;;17.31;43.85;102091.44;4980345;28;19921;-76
2022/05/04 04:41:17;;;;;;;;;;;;;;;17.30;43.83;102087.97;4964467;28;19925;-76
2022/05/04 04:43:43;;;;;;;;;;;;;;;17.30;43.88;102087.97;4980399;28;19913;-77
2022/05/04 04:46:08;;;;;;;;;;;;;;;17.30;43.81;102087.97;4980282;28;19961;-76
2022/05/04 04:48:34;;;;;;;;;;;;;;;17.30;43.93;102082.75;4980190;28;19921;-76
2022/05/04 04:50:59;;;;;;;;;;;;;;;17.31;43.87;102084.53;4963916;28;19925;-76
2022/05/04 04:53:25;;;;;;;;;;;;;;;17.31;43.79;102088.81;4964273;28;19924;-77
2022/05/04 04:55:50;;;;;;;;;;;;;;;17.31;43.89;102091.44;4963937;28;19928;-76
2022/05/04 04:58:15;;;;;;;;;;;;;;;17.31;43.64;102087.13;4997516;28;19914;-76
2022/05/04 05:00:41;;;;;;;;;;;;;;;17.31;43.66;102087.13;4964867;28;19925;-87
2022/05/04 05:03:06;;;;;;;;;;;;;;;17.31;43.92;102089.72;4965140;28;19940;-89
2022/05/04 05:05:32;;;;;;;;;;;;;;;17.32;43.88;102083.66;4981062;28;19964;-89
2022/05/04 05:07:57;;;;;;;;;;;;;;;17.33;43.58;102087.97;4998504;28;19918;-88
2022/05/04 05:10:22;;;;;;;;;;;;;;;17.33;43.76;102090.59;4981349;28;19926;-88
2022/05/04 05:12:50;;;;;;;;;;;;;;;17.34;43.91;102087.16;4981691;28;20435;-88
2022/05/04 05:17:59;;;;;;;;;;;;;;;17.37;43.58;102094.97;4999182;28;19991;-89
2022/05/04 05:20:25;;;;;;;;;;;;;;;17.39;43.66;102100.19;4965335;28;20287;-88
2022/05/04 05:22:50;;;;;;;;;;;;;;;17.43;43.70;102095.03;4999029;28;19968;-88
2022/05/04 05:25:15;;;;;;;;;;;;;;;17.46;43.62;102089.00;4964704;28;20316;-88
2022/05/04 05:27:40;;;;;;;;;;;;;;;17.46;43.52;102087.28;4997304;28;19929;-77
2022/05/04 05:30:06;;;;;;;;;;;;;;;17.48;43.43;102082.09;4963332;28;19987;-77
2022/05/04 05:32:32;;;;;;;;;;;;;;;17.48;43.25;102075.16;4979535;28;20262;-76
2022/05/04 05:34:57;;;;;;;;;;;;;;;17.51;43.58;102074.31;4963293;28;20008;-75
2022/05/04 05:37:22;;;;;;;;;;;;;;;17.55;43.19;102083.00;4963374;28;19910;-75
2022/05/04 05:39:48;;;;;;;;;;;;;;;17.61;43.04;102077.88;4996641;28;20363;-77
2022/05/04 05:42:14;;;;;;;;;;;;;;;17.61;43.03;102076.13;4979433;28;19914;-76
2022/05/04 05:44:39;;;;;;;;;;;;;;;17.63;42.89;102086.56;4997042;28;19921;-76
2022/05/04 05:47:05;;;;;;;;;;;;;;;17.65;43.03;102082.25;4963128;28;20376;-75
2022/05/04 05:49:30;;;;;;;;;;;;;;;17.66;42.94;102084.88;4979158;28;19914;-75
2022/05/04 05:51:56;;;;;;;;;;;;;;;17.65;42.79;102084.88;4979166;28;20307;-75
2022/05/04 05:54:22;;;;;;;;;;;;;;;17.65;42.88;102082.25;4979350;28;20352;-76
2022/05/04 05:56:47;;;;;;;;;;;;;;;17.65;43.05;102084.88;4996568;28;19922;-76
2022/05/04 05:59:12;;;;;;;;;;;;;;;17.67;43.02;102090.97;4962898;28;19928;-75
2022/05/04 06:01:38;;;;;;;;;;;;;;;17.68;42.90;102093.59;4962874;28;19917;-78
2022/05/04 06:04:04;;;;;;;;;;;;;;;17.69;42.83;102087.50;4962812;28;20406;-75
2022/05/04 06:06:29;;;;;;;;;;;;;;;17.73;42.75;102091.03;4980786;28;20276;-86
2022/05/04 06:08:54;;;;;;;;;;;;;;;17.74;42.77;102090.16;4999375;28;19913;-89
2022/05/04 06:11:20;;;;;;;;;;;;;;;17.77;42.71;102094.50;4982986;28;20360;-86
2022/05/04 06:13:45;;;;;;;;;;;;;;;17.79;42.71;102092.81;4984447;28;20444;-87
2022/05/04 06:16:20;;;;;;;;;;;;;;;17.81;42.60;102094.59;5000955;28;19949;-87
2022/05/04 06:18:48;;;;;;;;;;;;;;;17.82;42.85;102095.50;4986809;28;19914;-88
2022/05/04 07:11:26;;;;;;;;;;;;;;;18.07;42.61;102113.09;5360811;23;19926;-79
2022/05/04 07:13:52;;;;;;;;;;;;;;;18.11;42.48;102107.88;5473745;23;20380;-79
2022/05/04 07:34:23;;;;;;;;;;;;;;;18.22;42.72;102106.25;5740761;23;19933;-79
2022/05/04 07:36:48;;;;;;;;;;;;;;;18.25;42.41;102104.53;4939891;29;19918;-78
2022/05/04 07:42:21;;;;;;;;;;;;;;;18.28;42.65;102108.91;4939856;29;19919;-78
2022/05/04 07:57:46;;;;;;;;;;;;;;;18.27;42.60;102099.34;5074016;23;19933;-78
2022/05/04 08:10:33;;;;;;;;;;;;;;;18.30;42.66;102120.22;4918252;29;19934;-78
2022/05/04 08:20:44;;;;;;;;;;;;;;;18.31;42.58;102101.09;5555251;23;19937;-78
2022/05/04 08:23:10;;;;;;;;;;;;;;;18.30;42.87;102101.97;4940778;29;19922;-78
2022/05/04 08:30:48;;;;;;;;;;;;;;;18.32;42.77;102108.06;5021566;23;19933;-77
2022/05/04 08:33:14;;;;;;;;;;;;;;;18.32;42.66;102102.00;4963088;28;20275;-77
2022/05/04 08:35:39;;;;;;;;;;;;;;;18.32;42.67;102102.00;4983125;28;19992;-79
2022/05/04 08:45:53;;;;;;;;;;;;;;;18.32;42.81;102107.19;5469593;23;19930;-78
2022/05/04 08:48:19;;;;;;;;;;;;;;;18.33;42.87;102112.41;4987712;28;19918;-78
2022/05/04 08:50:45;;;;;;;;;;;;;;;18.33;42.61;102108.94;4985545;28;19925;-77
2022/05/04 08:53:12;;;;;;;;;;;;;;;18.33;42.79;102108.94;4984697;28;19913;-77
2022/05/04 08:58:12;;;;;;;;;;;;;;;18.30;42.72;102107.19;5114349;23;19949;-77
2022/05/04 09:00:38;;;;;;;;;;;;;;;18.32;42.63;102107.19;5000703;28;19913;-77
2022/05/04 09:03:03;;;;;;;;;;;;;;;18.32;42.78;102107.19;4984497;28;19953;-80
2022/05/04 09:47:00;;;;;;;;;;;;;;;18.17;42.84;102085.38;4958017;28;20281;-79
2022/05/04 09:49:30;;;;;;;;;;;;;;;18.15;42.95;102079.28;4941391;29;19919;-79
2022/05/04 09:51:56;;;;;;;;;;;;;;;18.14;42.89;102072.31;4957460;29;19991;-79
2022/05/04 09:54:25;;;;;;;;;;;;;;;18.14;42.84;102074.94;4957260;29;19957;-79
2022/05/04 09:56:52;;;;;;;;;;;;;;;18.14;42.95;102080.16;4942063;29;20320;-79
2022/05/04 09:59:24;;;;;;;;;;;;;;;18.14;42.95;102076.63;4960988;28;20030;-79
2022/05/04 10:01:51;;;;;;;;;;;;;;;18.13;43.09;102073.16;4960972;28;20375;-79
2022/05/04 10:04:17;;;;;;;;;;;;;;;18.12;43.11;102074.03;4955152;29;20269;-79
2022/05/04 10:06:44;;;;;;;;;;;;;;;18.12;43.06;102075.75;4940951;29;19918;-79
2022/05/04 10:09:09;;;;;;;;;;;;;;;18.13;42.95;102072.31;4926006;29;19922;-79
2022/05/04 10:11:35;;;;;;;;;;;;;;;18.13;42.97;102078.38;4940976;29;19941;-79
2022/05/04 10:14:04;;;;;;;;;;;;;;;18.14;42.95;102072.31;4925055;29;19919;-79
2022/05/04 10:16:37;;;;;;;;;;;;;;;18.16;42.89;102072.31;4940898;29;19938;-79
2022/05/04 10:19:06;;;;;;;;;;;;;;;18.17;42.77;102074.94;4941048;29;20013;-79
2022/05/04 10:21:32;;;;;;;;;;;;;;;18.16;43.04;102073.22;4940515;29;20257;-79
2022/05/04 10:24:01;;;;;;;;;;;;;;;18.17;43.01;102074.06;4940534;29;19942;-79
2022/05/04 10:26:34;;;;;;;;;;;;;;;18.17;42.92;102066.25;4940585;29;19915;-79
2022/05/04 10:48:22;;;;;;;;;;;;;;;18.20;42.80;102072.34;5040052;23;19932;-86
2022/05/04 10:50:48;;;;;;;;;;;;;;;18.21;42.90;102079.31;4999617;28;19928;-85
2022/05/04 10:53:26;;;;;;;;;;;;;;;18.22;42.95;102075.84;5001073;28;19925;-86
2022/05/04 10:56:06;;;;;;;;;;;;;;;18.22;42.73;102075.84;5000444;28;19921;-85
2022/05/04 10:58:34;;;;;;;;;;;;;;;18.22;42.97;102065.41;5000665;28;19924;-85
2022/05/04 11:01:03;;;;;;;;;;;;;;;18.22;42.96;102068.03;5018146;28;19906;-85
2022/05/04 11:03:47;;;;;;;;;;;;;;;18.23;42.89;102067.19;5000080;28;19921;-86
2022/05/04 11:06:21;;;;;;;;;;;;;;;18.23;42.80;102069.78;5017707;28;19902;-85
2022/05/04 11:08:48;;;;;;;;;;;;;;;18.24;42.76;102062.84;5000366;28;19897;-85
2022/05/04 11:11:14;;;;;;;;;;;;;;;18.25;42.73;102069.81;5017617;28;19906;-85
2022/05/04 11:13:45;;;;;;;;;;;;;;;18.24;42.77;102076.72;5000213;28;19925;-85
2022/05/04 11:16:13;;;;;;;;;;;;;;;18.25;42.95;102078.47;5000533;28;19941;-85
2022/05/04 11:18:38;;;;;;;;;;;;;;;18.24;42.95;102078.47;4984577;28;19929;-86
2022/05/04 11:21:09;;;;;;;;;;;;;;;18.24;42.82;102074.13;5000911;28;19957;-85
2022/05/04 11:23:39;;;;;;;;;;;;;;;18.25;42.96;102077.63;5000257;28;19962;-84
2022/05/04 11:26:04;;;;;;;;;;;;;;;18.24;42.89;102081.94;5017275;28;19906;-85
2022/05/04 11:28:30;;;;;;;;;;;;;;;18.26;42.95;102077.59;5001108;28;19938;-85
2022/05/04 11:30:57;;;;;;;;;;;;;;;18.26;42.89;102082.81;4982221;28;19918;-85
2022/05/04 11:33:23;;;;;;;;;;;;;;;18.26;42.97;102077.59;4982468;28;19922;-86
2022/05/04 11:35:54;;;;;;;;;;;;;;;18.26;42.74;102081.97;4982179;28;20438;-85
2022/05/04 12:01:59;;;;;;;;;;;;;;;18.29;42.79;102061.13;4207570;26;20025;-78
2022/05/04 12:04:25;;;;;;;;;;;;;;;18.30;42.82;102055.94;4964262;29;19958;-78
2022/05/04 12:06:51;;;;;;;;;;;;;;;18.32;42.98;102062.91;4962906;28;19914;-78
2022/05/04 12:09:18;;;;;;;;;;;;;;;18.32;42.95;102057.69;4962812;28;20033;-78
2022/05/04 12:11:47;;;;;;;;;;;;;;;18.32;43.00;102055.94;4966027;28;19918;-78
2022/05/04 12:14:13;;;;;;;;;;;;;;;18.32;42.90;102053.34;4966025;28;19973;-78
2022/05/04 12:16:38;;;;;;;;;;;;;;;18.33;42.85;102051.59;4965653;28;19922;-78
2022/05/04 12:19:04;;;;;;;;;;;;;;;18.33;42.88;102055.06;4968584;28;19914;-77
2022/05/04 12:21:29;;;;;;;;;;;;;;;18.33;42.84;102047.25;4972166;28;19914;-80
2022/05/04 12:23:55;;;;;;;;;;;;;;;18.33;42.97;102049.84;4975102;28;20359;-80
2022/05/04 12:26:20;;;;;;;;;;;;;;;18.34;42.97;102045.53;4978116;28;20392;-80
2022/05/04 12:34:15;;;;;;;;;;;;;;;18.34;42.83;102051.63;4998305;28;19925;-78
2022/05/04 12:36:41;;;;;;;;;;;;;;;18.35;42.79;102045.53;4974997;28;19961;-78
2022/05/04 12:39:06;;;;;;;;;;;;;;;18.35;42.92;102049.88;4950052;28;19926;-79
2022/05/04 12:41:33;;;;;;;;;;;;;;;18.35;42.98;102042.94;4950240;28;20010;-78
2022/05/04 12:44:03;;;;;;;;;;;;;;;18.35;42.86;102040.31;4949778;28;19918;-79
2022/05/04 12:46:29;;;;;;;;;;;;;;;18.35;42.96;102039.47;4965296;28;19914;-78
2022/05/04 12:48:54;;;;;;;;;;;;;;;18.34;42.95;102035.97;4948427;28;19925;-78
2022/05/04 12:51:20;;;;;;;;;;;;;;;18.35;42.96;102040.31;4949263;28;19922;-78
2022/05/04 12:53:49;;;;;;;;;;;;;;;18.35;42.92;102036.84;4965154;28;20372;-78
2022/05/04 12:59:01;;;;;;;;;;;;;;;18.36;42.79;102038.59;4977673;28;19922;-78
2022/05/04 13:01:27;;;;;;;;;;;;;;;18.36;42.79;102036.00;4959219;28;19930;-78
2022/05/04 13:03:52;;;;;;;;;;;;;;;18.36;42.93;102036.88;4950629;28;20385;-78
2022/05/04 13:06:21;;;;;;;;;;;;;;;18.37;42.78;102041.19;4966174;28;19925;-78
2022/05/04 13:08:48;;;;;;;;;;;;;;;18.37;42.77;102038.59;4966683;28;19918;-78
2022/05/04 13:11:13;;;;;;;;;;;;;;;18.38;42.88;102036.84;4951678;28;19929;-78
2022/05/04 14:45:53;;;;;;;;;;;;;;;18.52;42.69;101995.25;6067583;23;20241;31
2022/05/04 14:48:18;;;;;;;;;;;;;;;18.51;42.68;101989.19;4939269;29;19970;-87
2022/05/04 16:09:03;;;;;;;;;;;;;;;18.63;42.96;101970.09;6069315;23;19945;31
2022/05/04 17:16:23;;;;;;;;;;;;;;;18.47;43.10;101949.19;6040188;23;19921;31
2022/05/04 22:05:54;;;;;;;;;;;;;;;18.19;43.81;102068.00;5615968;23;19917;-86
2022/05/04 22:08:19;;;;;;;;;;;;;;;18.20;43.92;102063.66;5117170;23;20619;-85
2022/05/04 22:21:09;;;;;;;;;;;;;;;18.18;43.78;102068.88;6036619;23;19917;31
2022/05/04 22:54:47;;;;;;;;;;;;;;;18.15;43.79;102079.28;5017748;23;19933;-85
2022/05/04 22:57:16;;;;;;;;;;;;;;;18.15;43.80;102087.09;4979689;28;19966;-87
2022/05/04 22:59:41;;;;;;;;;;;;;;;18.15;43.73;102081.88;4979112;28;19915;-87
2022/05/04 23:02:06;;;;;;;;;;;;;;;18.16;43.94;102090.56;4979486;29;19914;-87
2022/05/04 23:04:32;;;;;;;;;;;;;;;18.15;43.81;102087.09;4980296;28;19943;-86
2022/05/04 23:06:57;;;;;;;;;;;;;;;18.15;43.88;102091.44;4979219;28;19914;-86
2022/05/04 23:09:23;;;;;;;;;;;;;;;18.14;43.76;102087.97;4978981;29;19926;-85
2022/05/04 23:11:54;;;;;;;;;;;;;;;18.14;43.98;102085.34;4978951;28;19945;-86
2022/05/04 23:14:20;;;;;;;;;;;;;;;18.15;43.95;102091.44;4978298;28;19938;-86
2022/05/04 23:16:45;;;;;;;;;;;;;;;18.14;44.00;102089.66;4979848;29;19906;-86
2022/05/04 23:19:16;;;;;;;;;;;;;;;18.14;43.88;102084.47;4978929;29;19914;-87
2022/05/04 23:21:45;;;;;;;;;;;;;;;18.14;43.74;102087.06;4977726;28;19913;-85
2022/05/04 23:24:13;;;;;;;;;;;;;;;18.13;44.02;102085.34;4979093;29;19902;-86
2022/05/04 23:26:38;;;;;;;;;;;;;;;18.13;44.00;102087.94;4962972;29;19923;-87
2022/05/04 23:29:04;;;;;;;;;;;;;;;18.12;43.89;102086.19;4977879;29;19982;-85
2022/05/04 23:31:29;;;;;;;;;;;;;;;18.12;43.86;102092.28;4978280;29;19942;-87
2022/05/04 23:33:54;;;;;;;;;;;;;;;18.12;43.95;102084.47;4978597;29;19922;-86
2022/05/04 23:39:04;;;;;;;;;;;;;;;18.12;43.83;102087.06;4979829;29;19990;-86
2022/05/04 23:41:32;;;;;;;;;;;;;;;18.12;44.00;102091.38;4978716;28;19923;-86
2022/05/04 23:43:57;;;;;;;;;;;;;;;18.11;44.04;102085.31;4978719;29;19899;-85
2022/05/04 23:46:22;;;;;;;;;;;;;;;18.12;43.85;102088.78;4978828;28;19990;-86
2022/05/04 23:48:48;;;;;;;;;;;;;;;18.12;44.06;102094.00;4979456;29;19914;-85
2022/05/04 23:51:13;;;;;;;;;;;;;;;18.11;43.97;102087.06;4974222;28;19929;-87
2022/05/04 23:53:39;;;;;;;;;;;;;;;18.10;43.89;102091.41;4970814;28;19950;-86
2022/05/04 23:56:09;;;;;;;;;;;;;;;18.10;43.99;102088.78;4981213;28;19910;-86
2022/05/04 23:58:34;;;;;;;;;;;;;;;18.11;43.96;102094.88;4981651;28;19899;-86
